Iola, KS (66749)

8:53 PM CST on February 28, 2015 (GMT -0600)
Casa Bravo | Change Station
CLOSE
Current Station
Personal Weather Station
Location: Chanute, KS
Elevation: 998 ft
Nearby Weather Stations

Elev 998 ft 37.67 °N, 95.47 °W | Updated 14 minutes ago

Overcast
Overcast
22.2 °F
Feels Like 22 °F
N
0.0
Wind Variable Wind from East

Today
High -- | Low -- °F
--% Chance of Precip.
Yesterday
High -- | Low -- °F
Precip. -- in
6:54 AM 6:13 PM
Waxing Gibbous, 82% visible
Pressure 30.36 in
Visibility 7.0 miles
Clouds Mostly Cloudy 900 ft
Overcast 5500 ft
Windchill 22 °F
Dew Point 18 °F
Humidity 85%
Rainfall 0.00 in
Snow Depth Not available.
UV 0 out of 12
Pollen .50 out of 12
Air Quality Not available.
Flu Activity Regional
SPECI KCNU 010202Z AUTO 06003KT 7SM BKN009 OVC055 M04/M06 A3036 RMK AO2 T10441061

More Conditions Fewer Conditions

Pressure 30.36 in
Visibility 7.0 miles
Clouds Mostly Cloudy 900 ft
Overcast 5500 ft
Windchill 22 °F
Dew Point 18 °F
Humidity 85%
Rainfall 0.00 in
Snow Depth Not available.
UV 0 out of 12
Pollen .50 out of 12
Air Quality Not available.
Flu Activity Regional
SPECI KCNU 010202Z AUTO 06003KT 7SM BKN009 OVC055 M04/M06 A3036 RMK AO2 T10441061

More Conditions Fewer Conditions

10-Day Weather Forecast

Almanac

Astronomy

Feb. 28, 2015 Rise Set
Actual Time 6:54 AM CST 6:13 PM CST
Civil Twilight 6:28 AM CST 6:40 PM CST
Nautical Twilight 5:58 AM CST 7:10 PM CST
Astronomical Twilight 5:27 AM CST 7:41 PM CST
Moon 1:59 PM CST (2/28) 3:32 AM CST (2/28)
Length of Visible Light 12h 11m
Length of Day
11h 19m
Tomorrow will be 2m 23s longer.
Waxing Gibbous, 82% of the Moon is Illuminated
Today
Waxing Gibbous
Mar 5
Full
Mar 13
Last Quarter
Mar 20
New
Mar 27
First Quarter

Today's Extremes

State Highs State Lows

Community

WunderPhotos

Upload Photos

1,801,276 photos uploaded!

Nearby

Snow Depth

Station Depth Elevation
No new snow has been reported.

Earthquake Activity

City Distance Mag. Time & Date
Cushing, Oklahoma 156 miles 3.1 6:05 PM CST
2015-02-28
Perry, Oklahoma 161 miles 3.1 2:01 PM CST
2015-02-28
Perry, Oklahoma 146 miles 2.8 3:14 AM CST
2015-02-28
Perry, Oklahoma 158 miles 3.3 2:23 PM CST
2015-02-27
Minimum magnitude displayed is 2.5.

Coastal Water Temperatures

Place Temperature
No Stations Reporting

Nearby Weather Stations